Time;durP1;ratioP1;P1;durP2;ratioP2;P2;SDS_P1;SDS_P2;PMS_P1;PMS_P2;Temp;Humidity;BMP_temperature;BMP_pressure;BME280_temperature;BME280_humidity;BME280_pressure;Samples;Min_cycle;Max_cycle;Signal;HPM_P1;HPM_P2
2024/03/25 00:01:20;;;;;;;21.17;3.38;;;9.10;99.90;;;;;;10431704;28;20075;-50
2024/03/25 00:06:22;;;;;;;11.27;2.10;;;9.00;99.90;;;;;;10435895;28;20654;-54
2024/03/25 00:11:25;;;;;;;21.98;2.65;;;8.90;99.90;;;;;;10436213;28;20056;-55
2024/03/25 00:16:28;;;;;;;19.38;3.53;;;10.00;99.90;;;;;;10435319;28;20102;-54
2024/03/25 00:21:30;;;;;;;25.25;3.28;;;9.20;99.90;;;;;;10440570;28;20129;-52
2024/03/25 00:26:34;;;;;;;27.92;3.17;;;9.20;99.90;;;;;;10432303;28;20049;-52
2024/03/25 00:31:36;;;;;;;18.65;2.33;;;8.90;99.90;;;;;;10435576;28;20163;-51
2024/03/25 00:36:38;;;;;;;17.70;2.67;;;8.80;99.90;;;;;;10433133;28;20056;-53
2024/03/25 00:41:41;;;;;;;15.85;2.38;;;9.10;99.90;;;;;;10433235;28;20571;-50
2024/03/25 00:46:43;;;;;;;22.77;3.08;;;9.90;99.90;;;;;;10436589;28;20183;-54
2024/03/25 00:51:46;;;;;;;18.30;2.78;;;8.70;99.90;;;;;;10431153;28;20143;-54
2024/03/25 00:56:51;;;;;;;25.90;4.05;;;8.60;99.90;;;;;;10433380;28;20037;-54
2024/03/25 01:01:53;;;;;;;28.45;3.60;;;8.60;99.90;;;;;;10432091;28;20053;-50
2024/03/25 01:06:56;;;;;;;24.00;2.78;;;7.80;99.90;;;;;;10434781;28;20327;-54
2024/03/25 01:11:59;;;;;;;31.23;4.20;;;8.60;99.90;;;;;;10423921;28;20204;-54
2024/03/25 01:17:02;;;;;;;22.35;2.95;;;8.50;99.90;;;;;;10431717;28;20049;-54
2024/03/25 01:22:05;;;;;;;15.38;2.08;;;7.70;99.90;;;;;;10427428;28;20095;-54
2024/03/25 01:27:09;;;;;;;;;;;8.20;99.90;;;;;;10429767;28;20048;-54
2024/03/25 01:32:11;;;;;;;30.77;3.88;;;7.80;99.90;;;;;;10427481;28;19935;-52
2024/03/25 01:37:13;;;;;;;21.38;2.95;;;7.90;99.90;;;;;;10435005;28;20052;-51
2024/03/25 01:42:17;;;;;;;18.90;3.20;;;8.00;99.90;;;;;;10432280;28;20136;-52
2024/03/25 01:47:19;;;;;;;19.17;2.97;;;8.70;99.90;;;;;;10426644;28;20059;-51
2024/03/25 01:52:25;;;;;;;22.77;3.57;;;8.90;99.90;;;;;;10427878;28;20045;-51
2024/03/25 01:57:29;;;;;;;19.20;2.40;;;9.40;99.90;;;;;;10424433;28;20495;-51
2024/03/25 02:02:33;;;;;;;21.10;3.60;;;9.10;99.90;;;;;;10429603;28;20044;-53
2024/03/25 02:07:36;;;;;;;32.45;3.92;;;9.40;99.90;;;;;;10430696;28;21376;-53
2024/03/25 02:12:41;;;;;;;20.98;3.05;;;9.40;99.90;;;;;;10427600;28;20053;-52
2024/03/25 02:17:43;;;;;;;22.10;3.03;;;9.80;99.90;;;;;;10436813;28;21354;-50
2024/03/25 02:22:45;;;;;;;14.77;3.73;;;10.30;99.90;;;;;;10431578;28;20064;-51
2024/03/25 02:27:49;;;;;;;23.20;4.03;;;10.70;99.90;;;;;;10425100;28;20040;-51
2024/03/25 02:32:51;;;;;;;21.17;3.97;;;10.60;99.90;;;;;;10425645;28;20114;-52
2024/03/25 02:37:54;;;;;;;21.37;3.40;;;11.00;99.90;;;;;;10432096;28;20536;-50
2024/03/25 02:42:59;;;;;;;;;;;11.10;99.90;;;;;;10429142;28;21732;-52
2024/03/25 02:48:01;;;;;;;14.30;3.25;;;11.30;99.90;;;;;;10429978;28;19932;-55
2024/03/25 02:53:03;;;;;;;14.53;3.80;;;11.50;99.90;;;;;;10434169;28;20052;-53
2024/03/25 02:58:09;;;;;;;30.45;3.40;;;11.70;99.90;;;;;;10430298;28;20163;-52
2024/03/25 03:03:11;;;;;;;16.17;4.20;;;11.70;99.90;;;;;;10436467;28;20556;-51
2024/03/25 03:08:13;;;;;;;13.27;3.23;;;11.70;99.90;;;;;;10434921;28;20049;-50
2024/03/25 03:13:16;;;;;;;19.27;3.58;;;11.80;99.90;;;;;;10439131;28;20067;-52
2024/03/25 03:18:18;;;;;;;9.75;3.03;;;11.80;99.90;;;;;;10436419;28;20056;-51
2024/03/25 03:23:20;;;;;;;10.98;3.45;;;11.90;99.90;;;;;;10434671;28;20060;-49
2024/03/25 03:28:24;;;;;;;17.07;1.97;;;12.00;99.90;;;;;;10439670;28;20048;-53
2024/03/25 03:33:26;;;;;;;16.25;2.75;;;11.80;99.90;;;;;;10436795;28;20169;-53
2024/03/25 03:38:28;;;;;;;18.88;3.13;;;11.70;99.90;;;;;;10439150;28;20839;-52
2024/03/25 03:43:32;;;;;;;11.98;2.75;;;11.80;99.90;;;;;;10435243;28;20053;-54
2024/03/25 03:48:35;;;;;;;9.70;2.70;;;12.00;99.90;;;;;;10432082;28;20048;-52
2024/03/25 03:53:37;;;;;;;4.60;1.80;;;12.00;99.90;;;;;;10430392;28;20057;-52
2024/03/25 03:58:41;;;;;;;11.85;2.08;;;12.00;99.90;;;;;;10429748;28;20045;-51
2024/03/25 04:03:43;;;;;;;10.57;2.60;;;12.00;99.90;;;;;;10438698;28;20386;-52
2024/03/25 04:08:45;;;;;;;12.70;2.63;;;12.00;99.90;;;;;;10432754;28;20060;-51
2024/03/25 04:13:49;;;;;;;10.67;2.33;;;12.00;99.90;;;;;;10438856;28;20107;-54
2024/03/25 04:18:52;;;;;;;19.35;3.22;;;12.10;99.90;;;;;;10433380;28;20098;-54
2024/03/25 04:23:56;;;;;;;7.88;2.10;;;12.10;99.90;;;;;;10437141;28;20493;-53
2024/03/25 04:29:01;;;;;;;7.25;1.92;;;12.10;99.90;;;;;;10432986;28;20060;-54
2024/03/25 04:34:03;;;;;;;10.02;2.00;;;12.10;99.90;;;;;;10431733;28;20056;-54
